createdAt,value
2022-08-11T00:02:35.742Z,98976.66
2022-08-11T00:05:08.944Z,98974.09
2022-08-11T00:07:44.473Z,98972.00
2022-08-11T00:10:14.703Z,98974.50
2022-08-11T00:12:44.116Z,98971.00
2022-08-11T00:15:14.200Z,98974.09
2022-08-11T00:17:43.023Z,98967.16
2022-08-11T00:20:16.739Z,98973.53
2022-08-11T00:22:48.566Z,98965.84
2022-08-11T00:25:18.956Z,98967.94
2022-08-11T00:27:49.141Z,98976.53
2022-08-11T00:30:19.255Z,98961.78
2022-08-11T00:32:58.734Z,98962.50
2022-08-11T00:35:56.230Z,98960.38
2022-08-11T00:38:19.538Z,98962.66
2022-08-11T00:40:55.060Z,98963.84
2022-08-11T00:43:26.804Z,98963.84
2022-08-11T00:46:12.854Z,98960.88
2022-08-11T00:48:47.928Z,98960.97
2022-08-11T00:51:23.081Z,98970.25
2022-08-11T00:54:03.166Z,98962.97
2022-08-11T00:57:09.228Z,98961.69
2022-08-11T01:00:06.654Z,98962.84
2022-08-11T01:02:48.748Z,98961.41
2022-08-11T01:05:38.024Z,98963.13
2022-08-11T01:08:43.890Z,98962.50
2022-08-11T01:11:29.176Z,98966.00
2022-08-11T01:14:34.510Z,98965.09
2022-08-11T01:17:15.166Z,98971.78
2022-08-11T01:20:45.454Z,98954.72
2022-08-11T01:23:34.066Z,98959.28
2022-08-11T01:26:45.971Z,98951.03
2022-08-11T01:29:29.954Z,98951.69
2022-08-11T01:32:34.505Z,98953.09
2022-08-11T01:35:31.675Z,98949.59
2022-08-11T01:38:33.649Z,98955.50
2022-08-11T01:41:51.055Z,98958.31
2022-08-11T01:44:41.315Z,98948.69
2022-08-11T01:47:35.598Z,98955.19
2022-08-11T01:50:11.264Z,98965.41
2022-08-11T01:52:50.525Z,98959.13
2022-08-11T01:55:24.286Z,98948.41
2022-08-11T01:58:02.878Z,98954.81
2022-08-11T02:00:32.346Z,98946.47
2022-08-11T02:03:09.569Z,98951.00
2022-08-11T02:05:48.580Z,98948.56
2022-08-11T02:08:33.090Z,98944.47
2022-08-11T02:11:26.100Z,98948.91
2022-08-11T02:14:03.729Z,98946.22
2022-08-11T02:16:46.596Z,98947.97
2022-08-11T02:19:53.016Z,98952.75
2022-08-11T02:22:47.646Z,98951.25
2022-08-11T02:25:25.589Z,98944.84
2022-08-11T02:28:00.641Z,98947.75
2022-08-11T02:30:33.582Z,98957.25
2022-08-11T02:33:25.392Z,98949.81
2022-08-11T02:36:05.271Z,98948.44
2022-08-11T02:38:43.525Z,98950.84
2022-08-11T02:41:35.563Z,98950.28
2022-08-11T02:44:13.461Z,98954.81
2022-08-11T02:46:51.111Z,98952.13
2022-08-11T02:49:47.140Z,98952.97
2022-08-11T02:52:37.015Z,98954.44
2022-08-11T02:55:45.990Z,98944.00
2022-08-11T02:58:18.009Z,98945.16
2022-08-11T03:00:57.378Z,98944.59
2022-08-11T03:03:27.210Z,98947.22
2022-08-11T03:06:10.239Z,98940.53
2022-08-11T03:08:51.469Z,98942.72
2022-08-11T03:11:39.612Z,98943.78
2022-08-11T03:14:34.321Z,98949.13
2022-08-11T03:17:12.442Z,98947.47
2022-08-11T03:19:48.260Z,98956.41
2022-08-11T03:22:22.991Z,98954.56
2022-08-11T03:24:57.811Z,98960.72
2022-08-11T03:27:36.973Z,98957.91
2022-08-11T03:30:13.568Z,98964.69
2022-08-11T03:33:12.529Z,98964.78
2022-08-11T03:35:43.513Z,98965.34
2022-08-11T03:38:14.407Z,98971.41
2022-08-11T03:42:02.394Z,98959.44
2022-08-11T03:44:05.819Z,98966.66
2022-08-11T03:46:50.752Z,98964.81
2022-08-11T03:49:29.497Z,98951.03
2022-08-11T03:52:03.204Z,98965.50
2022-08-11T03:54:41.943Z,98963.50
2022-08-11T03:57:44.193Z,98959.13
2022-08-11T04:00:22.704Z,98967.34
2022-08-11T04:03:10.125Z,98959.56
2022-08-11T04:06:21.484Z,98945.97
2022-08-11T04:09:14.705Z,98951.69
2022-08-11T04:11:57.690Z,98955.16
2022-08-11T04:15:01.784Z,98946.66
2022-08-11T04:18:06.071Z,98948.78
2022-08-11T04:20:48.486Z,98948.53
2022-08-11T04:24:36.213Z,98949.38
2022-08-11T04:26:35.015Z,98948.31
2022-08-11T04:29:16.675Z,98952.44
2022-08-11T04:32:02.518Z,98952.38
2022-08-11T04:34:46.254Z,98946.59
2022-08-11T04:37:34.659Z,98945.16
2022-08-11T04:40:13.376Z,98947.84
2022-08-11T04:43:22.848Z,98944.94
2022-08-11T04:46:13.712Z,98949.75
2022-08-11T04:49:33.692Z,98945.34
2022-08-11T04:52:56.619Z,98941.31
2022-08-11T04:55:54.814Z,98948.09
2022-08-11T04:58:44.659Z,98961.06
2022-08-11T05:01:43.722Z,98963.75
2022-08-11T05:04:44.952Z,98950.63
2022-08-11T05:07:34.683Z,98959.56
2022-08-11T05:10:20.846Z,98954.91
2022-08-11T05:12:53.441Z,98948.41
2022-08-11T05:15:50.926Z,98953.41
2022-08-11T05:18:41.497Z,98953.22
2022-08-11T05:21:30.502Z,98952.78
2022-08-11T05:24:44.133Z,98949.69
2022-08-11T05:27:33.682Z,98944.25
2022-08-11T05:30:21.625Z,98947.00
2022-08-11T05:33:16.278Z,98949.06
2022-08-11T05:36:00.005Z,98962.78
2022-08-11T05:38:52.138Z,98954.75
2022-08-11T05:41:39.710Z,98961.72
2022-08-11T05:44:29.218Z,98959.50
2022-08-11T05:47:15.754Z,98953.84
2022-08-11T05:50:08.476Z,98953.47
2022-08-11T05:53:04.289Z,98953.56
2022-08-11T05:56:02.413Z,98951.13
2022-08-11T05:58:41.718Z,98954.69
2022-08-11T06:01:13.541Z,98960.47
2022-08-11T06:03:59.214Z,98961.94
2022-08-11T06:06:29.360Z,98955.69
2022-08-11T06:08:58.885Z,98967.75
2022-08-11T06:11:44.373Z,98966.78
2022-08-11T06:14:14.153Z,98960.13
2022-08-11T06:16:44.421Z,98979.03
2022-08-11T06:19:12.469Z,98970.97
2022-08-11T06:21:46.341Z,98978.72
2022-08-11T06:24:15.514Z,98981.66
2022-08-11T06:27:09.191Z,98980.88
2022-08-11T06:29:47.822Z,98984.75
2022-08-11T06:32:18.984Z,98986.44
2022-08-11T06:34:54.638Z,98977.88
2022-08-11T06:37:26.504Z,98983.38
2022-08-11T06:40:07.456Z,98986.03
2022-08-11T06:42:44.461Z,98983.47
2022-08-11T06:45:22.255Z,98991.81
2022-08-11T06:47:53.692Z,98982.28
2022-08-11T06:50:39.581Z,98984.22
2022-08-11T06:53:10.728Z,98986.41
2022-08-11T06:55:59.091Z,98983.91
2022-08-11T06:58:48.762Z,98978.09
2022-08-11T07:01:24.354Z,98981.59
2022-08-11T07:03:58.630Z,98981.53
2022-08-11T07:06:50.634Z,98981.44
2022-08-11T07:10:24.226Z,98973.06
2022-08-11T07:13:11.500Z,98978.59
2022-08-11T07:16:12.206Z,98975.88
2022-08-11T07:19:00.184Z,98967.72
2022-08-11T07:22:00.975Z,98974.09
2022-08-11T07:24:59.210Z,98983.00
2022-08-11T07:27:56.214Z,98964.19
2022-08-11T07:30:25.773Z,98969.50
2022-08-11T07:32:56.401Z,98970.22
2022-08-11T07:35:30.578Z,98974.66
2022-08-11T07:38:07.182Z,98975.88
2022-08-11T07:40:36.585Z,98977.78
2022-08-11T07:43:05.777Z,98984.91
2022-08-11T07:45:52.941Z,98975.22
2022-08-11T07:48:39.156Z,98979.47
2022-08-11T07:51:25.170Z,98977.47
2022-08-11T07:54:03.024Z,98970.69
2022-08-11T07:56:49.833Z,98976.31
2022-08-11T08:00:03.782Z,98977.53
2022-08-11T08:02:46.751Z,98974.94
2022-08-11T08:05:33.651Z,98961.88
2022-08-11T08:08:19.240Z,98967.19
2022-08-11T08:11:06.527Z,98970.22
2022-08-11T08:13:52.554Z,98955.63
2022-08-11T08:16:39.304Z,98957.44
2022-08-11T08:19:07.628Z,98957.75
2022-08-11T08:21:36.035Z,98955.41
2022-08-11T08:24:04.903Z,98955.00
2022-08-11T08:26:52.297Z,98965.31
2022-08-11T08:29:39.248Z,98957.94
2022-08-11T08:32:08.463Z,98948.63
2022-08-11T08:34:38.372Z,98953.22
2022-08-11T08:37:15.795Z,98953.75
2022-08-11T08:39:55.901Z,98948.13
2022-08-11T08:42:26.670Z,98936.56
2022-08-11T08:44:59.099Z,98942.50
2022-08-11T08:47:41.100Z,98940.97
2022-08-11T08:50:16.230Z,98937.41
2022-08-11T08:52:50.712Z,98937.22
2022-08-11T08:55:20.753Z,98939.56
2022-08-11T08:57:54.066Z,98943.41
2022-08-11T09:00:23.545Z,98933.88
2022-08-11T09:02:53.216Z,98941.72
2022-08-11T09:05:22.282Z,98929.03
2022-08-11T09:07:53.428Z,98942.59
2022-08-11T09:10:22.115Z,98945.59
2022-08-11T09:12:52.254Z,98930.88
2022-08-11T09:15:20.932Z,98936.84
2022-08-11T09:17:50.467Z,98930.28
2022-08-11T09:20:20.644Z,98928.00
2022-08-11T09:24:06.343Z,98934.34
2022-08-11T09:26:15.869Z,98930.94
2022-08-11T09:28:45.964Z,98919.47
2022-08-11T09:31:15.645Z,98916.56
2022-08-11T09:33:45.184Z,98921.00
2022-08-11T09:36:32.582Z,98915.78
2022-08-11T09:39:19.929Z,98919.94
2022-08-11T09:42:01.067Z,98911.72
2022-08-11T09:44:49.243Z,98921.81
2022-08-11T09:47:21.228Z,98910.00
2022-08-11T09:49:52.850Z,98914.06
2022-08-11T09:52:22.162Z,98901.88
2022-08-11T09:54:51.256Z,98908.63
2022-08-11T09:57:41.101Z,98904.63
2022-08-11T10:00:15.328Z,98906.81
2022-08-11T10:02:45.908Z,98898.72
2022-08-11T10:05:35.479Z,98897.47
2022-08-11T10:08:04.454Z,98892.09
2022-08-11T10:10:36.080Z,98895.78
2022-08-11T10:14:30.157Z,98895.53
2022-08-11T10:16:16.085Z,98892.91
2022-08-11T10:18:53.053Z,98882.47
2022-08-11T10:21:31.651Z,98872.16
2022-08-11T10:24:19.210Z,98877.81
2022-08-11T10:26:55.561Z,98873.25
2022-08-11T10:29:44.494Z,98884.28
2022-08-11T10:32:52.251Z,98866.63
2022-08-11T10:35:27.942Z,98869.81
2022-08-11T10:38:07.357Z,98863.19
2022-08-11T10:40:40.180Z,98852.97
2022-08-11T10:43:13.825Z,98856.28
2022-08-11T10:46:02.200Z,98872.88
2022-08-11T10:48:38.236Z,98848.63
2022-08-11T10:51:50.482Z,98853.84
2022-08-11T10:54:24.622Z,98854.16
2022-08-11T10:57:12.150Z,98851.16
2022-08-11T10:59:43.036Z,98852.81
2022-08-11T11:02:15.181Z,98857.16
2022-08-11T11:04:58.135Z,98848.53
2022-08-11T11:07:32.609Z,98846.94
2022-08-11T11:10:04.574Z,98826.97
2022-08-11T11:12:52.261Z,98842.00
2022-08-11T11:15:40.897Z,98824.25
2022-08-11T11:18:12.572Z,98811.72
2022-08-11T11:20:47.494Z,98821.25
2022-08-11T11:23:20.115Z,98805.88
2022-08-11T11:26:07.530Z,98803.22
2022-08-11T11:29:06.629Z,98811.22
2022-08-11T11:31:46.135Z,98801.09
2022-08-11T11:34:23.040Z,98788.72
2022-08-11T11:36:55.719Z,98785.56
2022-08-11T11:39:25.606Z,98792.81
2022-08-11T11:41:57.753Z,98782.56
2022-08-11T11:44:26.573Z,98776.47
2022-08-11T11:46:56.736Z,98769.81
2022-08-11T11:49:27.458Z,98778.72
2022-08-11T11:51:58.595Z,98771.78
2022-08-11T11:54:29.269Z,98774.97
2022-08-11T11:56:58.879Z,98773.16
2022-08-11T11:59:46.061Z,98773.34
2022-08-11T12:02:15.391Z,98763.75
2022-08-11T12:04:46.119Z,98761.91
2022-08-11T12:07:33.523Z,98767.38
2022-08-11T12:10:03.051Z,98759.63
2022-08-11T12:12:50.043Z,98761.56
2022-08-11T12:16:04.350Z,98766.75
2022-08-11T12:18:08.209Z,98763.19
2022-08-11T12:20:36.717Z,98762.03
2022-08-11T12:23:24.188Z,98750.25
2022-08-11T12:26:26.384Z,98763.97
2022-08-11T12:28:58.731Z,98754.09
2022-08-11T12:31:27.283Z,98758.66
2022-08-11T12:34:01.839Z,98751.94
2022-08-11T12:36:33.704Z,98752.22
2022-08-11T12:39:04.903Z,98744.63
2022-08-11T12:42:06.026Z,98745.44
2022-08-11T12:44:51.797Z,98737.63
2022-08-11T12:47:21.695Z,98735.75
2022-08-11T12:50:22.924Z,98734.75
2022-08-11T12:52:54.393Z,98736.59
2022-08-11T12:55:39.269Z,98724.13
2022-08-11T12:58:18.013Z,98726.66
2022-08-11T13:01:04.436Z,98713.09
2022-08-11T13:03:52.466Z,98700.84
2022-08-11T13:06:25.753Z,98706.06
2022-08-11T13:08:56.726Z,98705.75
2022-08-11T13:11:55.804Z,98708.22
2022-08-11T13:14:27.221Z,98714.38
2022-08-11T13:17:12.721Z,98709.88
2022-08-11T13:19:47.437Z,98710.13
2022-08-11T13:22:18.794Z,98701.66
2022-08-11T13:24:48.255Z,98693.78
2022-08-11T13:27:20.908Z,98697.97
2022-08-11T13:29:50.915Z,98693.31
2022-08-11T13:32:19.462Z,98689.63
2022-08-11T13:34:48.228Z,98688.44
2022-08-11T13:37:16.683Z,98693.06
2022-08-11T13:39:47.400Z,98692.97
2022-08-11T13:42:21.163Z,98697.38
2022-08-11T13:44:49.798Z,98688.56
2022-08-11T13:47:18.236Z,98690.13
2022-08-11T13:49:48.023Z,98687.19
2022-08-11T13:52:17.366Z,98689.81
2022-08-11T13:54:49.316Z,98698.97
2022-08-11T13:58:06.213Z,98704.97
2022-08-11T14:00:23.454Z,98803.47
2022-08-11T14:02:57.140Z,98800.19
2022-08-11T14:05:28.428Z,98781.03
2022-08-11T14:07:59.418Z,98762.88
2022-08-11T14:10:30.215Z,98785.00
2022-08-11T14:13:19.358Z,98796.72
2022-08-11T14:15:49.214Z,98823.56
2022-08-11T14:18:20.520Z,98817.00
2022-08-11T14:21:09.679Z,98818.41
2022-08-11T14:23:41.257Z,98815.53
2022-08-11T14:26:26.384Z,98822.31
2022-08-11T14:29:02.979Z,98817.97
2022-08-11T14:31:33.104Z,98820.22
2022-08-11T14:34:05.034Z,98842.09
2022-08-11T14:36:36.635Z,98849.72
2022-08-11T14:39:08.735Z,98854.53
2022-08-11T14:42:10.632Z,98850.47
2022-08-11T14:45:03.481Z,98841.75
2022-08-11T14:47:33.749Z,98834.84
2022-08-11T14:50:11.304Z,98836.72
2022-08-11T14:52:42.414Z,98832.84
2022-08-11T14:55:29.017Z,98828.88
2022-08-11T14:57:57.511Z,98823.41
2022-08-11T15:00:27.733Z,98831.19
2022-08-11T15:03:11.044Z,98831.63
2022-08-11T15:05:56.318Z,98819.16
2022-08-11T15:08:46.421Z,98811.06
2022-08-11T15:11:34.563Z,98808.91
2022-08-11T15:14:04.257Z,98803.31
2022-08-11T15:16:52.744Z,98808.91
2022-08-11T15:19:22.104Z,98812.91
2022-08-11T15:22:08.886Z,98806.03
2022-08-11T15:24:37.422Z,98825.38
2022-08-11T15:27:24.722Z,98833.91
2022-08-11T15:30:10.932Z,98836.09
2022-08-11T15:33:09.377Z,98839.81
2022-08-11T15:35:56.389Z,98833.53
2022-08-11T15:38:25.358Z,98824.09
2022-08-11T15:41:14.985Z,98819.81
2022-08-11T15:44:02.749Z,98808.59
2022-08-11T15:46:32.121Z,98808.69
2022-08-11T15:49:04.704Z,98806.47
2022-08-11T15:51:36.306Z,98797.19
2022-08-11T15:54:09.390Z,98798.72
2022-08-11T15:56:39.896Z,98808.22
2022-08-11T15:59:41.683Z,98801.19
2022-08-11T16:02:32.711Z,98799.53
2022-08-11T16:05:08.393Z,98800.88
2022-08-11T16:07:40.678Z,98797.78
2022-08-11T16:10:19.434Z,98794.69
2022-08-11T16:13:11.951Z,98791.16
2022-08-11T16:16:04.850Z,98795.44
2022-08-11T16:18:41.807Z,98798.59
2022-08-11T16:21:33.993Z,98799.69
2022-08-11T16:24:07.765Z,98802.91
2022-08-11T16:27:08.361Z,98810.25
2022-08-11T16:29:32.363Z,98806.81
2022-08-11T16:32:20.659Z,98804.16
2022-08-11T16:35:10.308Z,98799.47
2022-08-11T16:37:57.735Z,98794.00
2022-08-11T16:40:26.343Z,98794.09
2022-08-11T16:43:12.650Z,98790.50
2022-08-11T16:45:56.582Z,98782.47
2022-08-11T16:48:33.128Z,98787.59
2022-08-11T16:51:05.274Z,98779.53
2022-08-11T16:54:00.345Z,98783.03
2022-08-11T16:56:26.857Z,98774.78
2022-08-11T16:59:15.257Z,98770.59
2022-08-11T17:01:46.168Z,98767.72
2022-08-11T17:04:38.893Z,98765.16
2022-08-11T17:07:50.030Z,98772.81
2022-08-11T17:10:53.717Z,98766.03
2022-08-11T17:13:27.626Z,98772.81
2022-08-11T17:16:12.723Z,98764.09
2022-08-11T17:18:46.943Z,98768.09
2022-08-11T17:21:21.195Z,98764.34
2022-08-11T17:23:52.615Z,98758.56
2022-08-11T17:26:25.791Z,98763.25
2022-08-11T17:28:58.274Z,98766.03
2022-08-11T17:31:45.463Z,98770.75
2022-08-11T17:34:33.498Z,98771.81
2022-08-11T17:37:02.145Z,98766.78
2022-08-11T17:39:32.509Z,98765.00
2022-08-11T17:42:20.722Z,98764.31
2022-08-11T17:45:07.331Z,98771.41
2022-08-11T17:47:53.564Z,98771.69
2022-08-11T17:50:22.376Z,98772.19
2022-08-11T17:53:08.965Z,98771.28
2022-08-11T17:55:58.028Z,98768.28
2022-08-11T17:58:45.968Z,98764.63
2022-08-11T18:01:15.482Z,98759.75
2022-08-11T18:03:54.621Z,98762.13
2022-08-11T18:06:33.772Z,98758.72
2022-08-11T18:09:22.202Z,98757.47
2022-08-11T18:12:11.495Z,98756.09
2022-08-11T18:15:00.950Z,98759.97
2022-08-11T18:17:46.566Z,98763.13
2022-08-11T18:20:32.558Z,98765.28
2022-08-11T18:23:20.854Z,98764.50
2022-08-11T18:26:27.994Z,98762.63
2022-08-11T18:29:16.246Z,98769.53
2022-08-11T18:32:08.825Z,98771.06
2022-08-11T18:34:56.551Z,98769.78
2022-08-11T18:37:45.371Z,98768.81
2022-08-11T18:40:36.617Z,98771.44
2022-08-11T18:43:27.352Z,98773.47
2022-08-11T18:46:19.609Z,98785.25
2022-08-11T18:49:15.366Z,98779.06
2022-08-11T18:52:05.736Z,98781.22
2022-08-11T18:54:53.969Z,98783.97
2022-08-11T18:57:50.083Z,98795.34
2022-08-11T19:00:41.111Z,98802.91
2022-08-11T19:03:28.785Z,98798.59
2022-08-11T19:06:38.663Z,98804.63
2022-08-11T19:09:27.532Z,98799.84
2022-08-11T19:12:14.185Z,98801.97
2022-08-11T19:15:00.409Z,98791.94
2022-08-11T19:17:46.303Z,98787.91
2022-08-11T19:20:34.334Z,98796.75
2022-08-11T19:23:22.354Z,98798.22
2022-08-11T19:26:08.723Z,98800.97
2022-08-11T19:28:56.458Z,98796.41
2022-08-11T19:31:44.936Z,98791.38
2022-08-11T19:34:32.885Z,98797.25
2022-08-11T19:37:24.022Z,98792.50
2022-08-11T19:40:14.493Z,98793.91
2022-08-11T19:43:02.725Z,98791.41
2022-08-11T19:45:52.502Z,98786.63
2022-08-11T19:48:39.998Z,98780.66
2022-08-11T19:51:27.665Z,98792.03
2022-08-11T19:54:13.974Z,98796.91
2022-08-11T19:57:02.153Z,98791.91
2022-08-11T19:59:48.995Z,98781.94
2022-08-11T20:02:35.100Z,98778.22
2022-08-11T20:05:21.192Z,98784.19
2022-08-11T20:08:10.098Z,98777.56
2022-08-11T20:10:59.078Z,98787.59
2022-08-11T20:13:47.137Z,98788.53
2022-08-11T20:16:38.566Z,98790.41
2022-08-11T20:19:26.262Z,98783.94
2022-08-11T20:22:31.082Z,98777.34
2022-08-11T20:25:16.690Z,98779.59
2022-08-11T20:28:03.679Z,98786.78
2022-08-11T20:30:51.912Z,98785.63
2022-08-11T20:33:38.438Z,98779.50
2022-08-11T20:36:25.412Z,98773.78
2022-08-11T20:39:12.328Z,98775.31
2022-08-11T20:41:59.599Z,98777.28
2022-08-11T20:44:46.222Z,98773.63
2022-08-11T20:47:59.861Z,98771.47
2022-08-11T20:50:41.285Z,98769.28
2022-08-11T20:53:27.418Z,98772.38
2022-08-11T20:56:14.023Z,98778.13
2022-08-11T21:02:09.752Z,98778.03
2022-08-11T21:05:00.374Z,98785.78
2022-08-11T21:07:57.064Z,98791.31
2022-08-11T21:10:47.228Z,98793.19
2022-08-11T21:13:38.646Z,98791.47
2022-08-11T21:16:27.185Z,98792.75
2022-08-11T21:19:18.252Z,98793.66
2022-08-11T21:22:06.613Z,98791.06
2022-08-11T21:24:54.886Z,98786.19
2022-08-11T21:27:42.101Z,98787.81
2022-08-11T21:30:28.904Z,98788.38
2022-08-11T21:33:15.218Z,98789.41
2022-08-11T21:36:01.478Z,98803.53
2022-08-11T21:38:50.105Z,98793.75
2022-08-11T21:41:36.992Z,98791.53
2022-08-11T21:44:24.459Z,98792.34
2022-08-11T21:47:11.390Z,98789.97
2022-08-11T21:49:58.658Z,98791.34
2022-08-11T21:52:44.931Z,98794.94
2022-08-11T21:55:32.836Z,98790.78
2022-08-11T21:58:18.919Z,98790.31
2022-08-11T22:01:05.034Z,98795.09
2022-08-11T22:03:50.802Z,98792.34
2022-08-11T22:06:37.222Z,98801.13
2022-08-11T22:09:23.360Z,98789.47
2022-08-11T22:12:33.912Z,98800.47
2022-08-11T22:15:17.422Z,98800.91
2022-08-11T22:18:03.336Z,98807.28
2022-08-11T22:20:50.433Z,98811.78
2022-08-11T22:23:37.221Z,98806.56
2022-08-11T22:26:24.218Z,98812.97
2022-08-11T22:29:11.662Z,98801.00
2022-08-11T22:31:58.186Z,98803.72
2022-08-11T22:34:53.121Z,98796.28
2022-08-11T22:37:40.891Z,98798.75
2022-08-11T22:40:28.412Z,98792.59
2022-08-11T22:43:14.476Z,98792.09
2022-08-11T22:46:01.283Z,98803.13
2022-08-11T22:48:48.734Z,98797.44
2022-08-11T22:51:36.989Z,98807.47
2022-08-11T22:54:23.966Z,98799.91
2022-08-11T22:57:09.813Z,98799.56
2022-08-11T22:59:57.112Z,98802.81
2022-08-11T23:02:45.147Z,98803.56
2022-08-11T23:05:32.706Z,98792.47
2022-08-11T23:08:19.147Z,98792.47
2022-08-11T23:11:06.149Z,98800.00
2022-08-11T23:13:52.115Z,98791.31
2022-08-11T23:16:38.073Z,98797.00
2022-08-11T23:20:04.595Z,98790.34
2022-08-11T23:22:43.777Z,98787.25
2022-08-11T23:25:36.899Z,98784.72
2022-08-11T23:28:24.497Z,98777.66
2022-08-11T23:31:13.377Z,98787.19
2022-08-11T23:34:01.655Z,98780.00
2022-08-11T23:36:48.976Z,98777.09
2022-08-11T23:39:35.640Z,98766.56
2022-08-11T23:42:21.457Z,98769.84
2022-08-11T23:45:09.572Z,98768.44
2022-08-11T23:47:57.389Z,98769.78
2022-08-11T23:50:43.318Z,98764.50
2022-08-11T23:53:31.884Z,98764.78
2022-08-11T23:56:21.688Z,98771.34
2022-08-11T23:59:08.762Z,98762.50
